Time;durP1;ratioP1;P1;durP2;ratioP2;P2;SDS_P1;SDS_P2;PMS_P1;PMS_P2;Temp;Humidity;BMP_temperature;BMP_pressure;BME280_temperature;BME280_humidity;BME280_pressure;Samples;Min_cycle;Max_cycle;Signal;HPM_P1;HPM_P2
2022/07/27 00:01:55;;;;;;;8.57;1.30;;;;;;;14.47;72.43;101879.66;5049172;28;20042;-72
2022/07/27 00:04:22;;;;;;;6.53;1.70;;;;;;;14.45;72.53;101888.53;5050324;28;20049;-72
2022/07/27 00:06:52;;;;;;;5.63;1.80;;;;;;;14.43;72.92;101882.44;5049223;28;20038;-73
2022/07/27 00:09:19;;;;;;;6.47;1.88;;;;;;;14.42;72.88;101878.03;5051008;28;20045;-72
2022/07/27 00:11:46;;;;;;;4.63;2.00;;;;;;;14.41;73.34;101884.25;5049925;28;20052;-72
2022/07/27 00:14:14;;;;;;;6.25;1.90;;;;;;;14.41;73.58;101881.59;5050787;28;20048;-72
2022/07/27 00:16:41;;;;;;;4.28;1.85;;;;;;;14.40;73.59;101886.94;5051233;28;20120;-72
2022/07/27 00:19:08;;;;;;;10.82;1.95;;;;;;;14.39;73.82;101883.41;5049996;28;20855;-72
2022/07/27 00:21:36;;;;;;;4.90;1.90;;;;;;;14.39;73.95;101882.56;5050311;28;20049;-72
2022/07/27 00:24:11;;;;;;;6.20;2.03;;;;;;;14.38;73.90;101883.47;5050863;28;20049;-72
2022/07/27 00:26:38;;;;;;;5.88;1.95;;;;;;;14.39;74.11;101890.53;5052761;28;20041;-71
2022/07/27 00:29:06;;;;;;;6.65;2.25;;;;;;;14.38;74.02;101888.78;5053710;28;20046;-71
2022/07/27 00:31:33;;;;;;;3.75;1.60;;;;;;;14.37;74.08;101885.25;5054547;28;20042;-71
2022/07/27 00:34:01;;;;;;;4.72;1.95;;;;;;;14.36;74.03;101875.53;5053996;28;20551;-72
2022/07/27 00:36:29;;;;;;;8.10;2.30;;;;;;;14.37;74.13;101882.59;5054406;28;20096;-72
2022/07/27 00:38:56;;;;;;;5.97;2.00;;;;;;;14.33;74.19;101885.38;5053249;28;20041;-72
2022/07/27 00:41:23;;;;;;;5.97;2.08;;;;;;;14.26;74.41;101880.25;5054106;28;20045;-73
2022/07/27 00:43:57;;;;;;;5.50;1.80;;;;;;;14.23;74.45;101885.66;5053201;28;20088;-73
2022/07/27 00:46:26;;;;;;;4.00;2.00;;;;;;;14.19;74.46;101886.66;5054440;28;20121;-74
2022/07/27 00:48:53;;;;;;;6.53;2.20;;;;;;;14.13;74.53;101889.47;5053588;28;20497;-73
2022/07/27 00:51:22;;;;;;;7.45;2.22;;;;;;;14.09;74.72;101880.75;5053131;28;20084;-73
2022/07/27 00:53:52;;;;;;;4.68;1.88;;;;;;;14.05;74.95;101883.53;5054078;28;20084;-73
2022/07/27 00:56:21;;;;;;;5.85;2.30;;;;;;;14.01;75.05;101881.88;5053953;28;20095;-72
2022/07/27 00:58:52;;;;;;;9.77;2.13;;;;;;;13.96;75.14;101877.59;5052161;28;20069;-74
2022/07/27 01:01:19;;;;;;;5.95;2.25;;;;;;;13.96;75.25;101884.66;5053059;28;20120;-73
2022/07/27 01:04:07;;;;;;;5.43;2.15;;;;;;;13.91;75.44;101891.88;5052844;28;20608;-73
2022/07/27 01:06:34;;;;;;;6.10;2.17;;;;;;;13.89;75.55;101888.38;5054405;28;20468;-73
2022/07/27 01:11:48;;;;;;;4.60;2.00;;;;;;;13.83;76.00;101884.13;5053147;28;20771;-73
2022/07/27 01:14:16;;;;;;;6.82;2.10;;;;;;;13.78;75.86;101886.91;5053804;28;20068;-73
2022/07/27 01:16:45;;;;;;;5.97;1.70;;;;;;;13.76;76.01;101880.75;5054548;28;20045;-71
2022/07/27 01:19:13;;;;;;;5.82;2.38;;;;;;;13.72;76.15;101881.78;5048325;28;20521;-72
2022/07/27 01:21:41;;;;;;;8.15;2.33;;;;;;;13.67;76.37;101883.66;5041628;28;20096;-71
2022/07/27 01:24:09;;;;;;;4.45;2.10;;;;;;;13.62;76.40;101886.44;5053322;28;20044;-71
2022/07/27 01:26:37;;;;;;;6.03;2.28;;;;;;;13.59;76.45;101880.34;5053847;28;20065;-71
2022/07/27 01:29:05;;;;;;;7.32;1.95;;;;;;;13.55;76.49;101887.53;5052724;28;20038;-71
2022/07/27 01:31:32;;;;;;;4.47;1.95;;;;;;;13.54;76.71;101890.19;5053726;28;20045;-71
2022/07/27 01:34:00;;;;;;;6.88;2.63;;;;;;;13.49;76.65;101890.31;5053156;28;20057;-72
2022/07/27 01:36:27;;;;;;;4.18;1.95;;;;;;;13.43;76.71;101888.69;5053234;28;20061;-72
2022/07/27 01:38:55;;;;;;;8.88;2.20;;;;;;;13.41;77.06;101887.00;5052799;28;20147;-72
2022/07/27 01:41:23;;;;;;;4.35;2.15;;;;;;;13.38;77.05;101881.75;5053842;28;20042;-73
2022/07/27 01:43:50;;;;;;;4.65;2.20;;;;;;;13.34;77.40;101886.25;5036420;28;20045;-73
2022/07/27 01:46:17;;;;;;;8.82;2.20;;;;;;;13.35;77.47;101877.38;5052465;28;20068;-73
2022/07/27 01:48:44;;;;;;;9.45;2.45;;;;;;;13.36;77.56;101887.06;5053115;28;20053;-73
2022/07/27 01:51:11;;;;;;;4.70;1.90;;;;;;;13.38;77.56;101877.31;5053252;28;20041;-73
2022/07/27 01:53:39;;;;;;;8.40;2.15;;;;;;;13.40;77.46;101882.59;5051080;28;20048;-73
2022/07/27 01:56:11;;;;;;;3.67;2.00;;;;;;;13.39;77.52;101875.53;5052008;28;20076;-73
2022/07/27 01:58:40;;;;;;;7.07;2.38;;;;;;;13.37;77.58;101883.53;5054169;28;20041;-73
2022/07/27 02:01:07;;;;;;;4.50;2.17;;;;;;;13.35;77.61;101875.63;5052971;28;20042;-73
2022/07/27 02:03:35;;;;;;;7.40;2.47;;;;;;;13.35;77.54;101877.38;5052148;28;20073;-73
2022/07/27 02:06:04;;;;;;;5.00;2.40;;;;;;;13.33;77.45;101882.75;5052418;28;20049;-73
2022/07/27 02:08:33;;;;;;;6.40;2.90;;;;;;;13.29;77.65;101880.22;5052116;28;20037;-73
2022/07/27 02:13:48;;;;;;;7.63;2.92;;;;;;;13.21;77.61;101885.69;5050209;28;20584;-73
2022/07/27 02:16:17;;;;;;;6.90;2.92;;;;;;;13.18;77.98;101877.81;5052504;28;20092;-73
2022/07/27 02:18:46;;;;;;;4.95;1.92;;;;;;;13.16;78.12;101875.22;5052465;28;20124;-73
2022/07/27 02:21:15;;;;;;;5.72;2.75;;;;;;;13.13;78.04;101880.56;5067271;28;20064;-73
2022/07/27 02:23:43;;;;;;;7.75;2.67;;;;;;;13.09;78.46;101873.63;5051267;28;20053;-73
2022/07/27 02:26:11;;;;;;;5.50;2.25;;;;;;;13.05;78.28;101871.94;5051300;28;20566;-73
2022/07/27 02:28:38;;;;;;;7.10;2.58;;;;;;;13.00;78.38;101869.41;5052469;28;20042;-73
2022/07/27 02:31:05;;;;;;;5.70;2.50;;;;;;;12.98;78.51;101870.38;5051560;28;20056;-73
2022/07/27 02:33:34;;;;;;;7.90;2.40;;;;;;;12.97;78.77;101860.69;5052428;28;20073;-73
2022/07/27 02:36:02;;;;;;;7.97;2.63;;;;;;;12.96;79.23;101867.78;5052475;28;20045;-73
2022/07/27 02:38:29;;;;;;;6.72;2.45;;;;;;;12.94;79.21;101866.94;5052039;28;20045;-74
2022/07/27 02:40:56;;;;;;;5.05;1.98;;;;;;;12.93;79.12;101872.25;5051732;28;20049;-74
2022/07/27 02:43:24;;;;;;;6.72;2.17;;;;;;;12.87;79.13;101863.56;5052575;28;20053;-72
2022/07/27 02:45:51;;;;;;;8.80;2.33;;;;;;;12.84;79.31;101865.41;5051448;28;20208;-72
2022/07/27 02:48:18;;;;;;;7.32;1.90;;;;;;;12.76;79.13;101860.28;5051429;28;20092;-72
2022/07/27 02:50:45;;;;;;;9.85;2.40;;;;;;;12.71;79.59;101864.81;5050937;28;20132;-71
2022/07/27 02:53:13;;;;;;;10.02;2.55;;;;;;;12.65;79.78;101868.47;5032673;28;20042;-71
2022/07/27 02:55:40;;;;;;;5.13;2.25;;;;;;;12.59;79.78;101860.66;5049424;28;20125;-71
2022/07/27 02:58:07;;;;;;;9.48;2.55;;;;;;;12.57;80.01;101859.81;5051741;28;20529;-72
2022/07/27 03:00:34;;;;;;;4.35;1.95;;;;;;;12.55;80.13;101865.16;5050969;28;20068;-71
2022/07/27 03:03:01;;;;;;;4.78;2.60;;;;;;;12.54;80.10;101862.56;5050501;28;20038;-72
2022/07/27 03:05:29;;;;;;;6.95;2.58;;;;;;;12.52;79.96;101867.00;5051733;28;20125;-72
2022/07/27 03:07:56;;;;;;;9.40;2.30;;;;;;;12.50;80.48;101869.69;5052006;28;20041;-73
2022/07/27 03:10:23;;;;;;;6.30;2.20;;;;;;;12.49;80.49;101864.41;5051234;28;20053;-73
2022/07/27 03:12:50;;;;;;;6.30;2.45;;;;;;;12.47;80.61;101860.94;5051599;28;20042;-74
2022/07/27 03:15:17;;;;;;;5.68;2.22;;;;;;;12.43;80.51;101868.97;5052010;28;20068;-72
2022/07/27 03:17:44;;;;;;;8.02;2.70;;;;;;;12.41;80.48;101867.25;5052040;28;20052;-72
2022/07/27 03:20:13;;;;;;;18.75;2.75;;;;;;;12.40;80.56;101862.88;5051472;28;20061;-72
2022/07/27 03:22:41;;;;;;;4.32;2.30;;;;;;;12.40;80.44;101860.22;5067590;28;20071;-73
2022/07/27 03:25:09;;;;;;;5.60;2.17;;;;;;;12.37;80.53;101861.13;5051438;28;20046;-73
2022/07/27 03:27:36;;;;;;;5.50;2.60;;;;;;;12.34;80.58;101862.97;5051554;28;20068;-71
2022/07/27 03:30:06;;;;;;;6.68;2.20;;;;;;;12.27;80.68;101860.47;5050620;28;20109;-71
2022/07/27 03:32:33;;;;;;;4.15;2.45;;;;;;;12.20;80.75;101864.16;5051667;28;20045;-72
2022/07/27 03:35:01;;;;;;;5.97;2.28;;;;;;;12.14;80.71;101866.06;5050471;28;20141;-71
2022/07/27 03:37:28;;;;;;;7.35;2.20;;;;;;;12.05;80.59;101868.00;5049879;28;20080;-71
2022/07/27 03:39:55;;;;;;;9.98;2.13;;;;;;;12.01;80.66;101868.06;5049435;28;20046;-72
2022/07/27 03:42:23;;;;;;;6.55;2.35;;;;;;;11.95;80.80;101869.03;5050945;28;20034;-72
2022/07/27 03:44:50;;;;;;;4.07;2.20;;;;;;;11.90;80.87;101865.59;5050471;28;20091;-72
2022/07/27 03:47:18;;;;;;;8.20;2.38;;;;;;;11.86;81.04;101871.84;5050552;28;20041;-72
2022/07/27 03:49:46;;;;;;;8.32;2.35;;;;;;;11.83;80.98;101874.56;5051384;28;20041;-72
2022/07/27 03:52:13;;;;;;;9.32;2.85;;;;;;;11.82;81.22;101878.94;5051540;28;20034;-72
2022/07/27 03:54:46;;;;;;;5.38;2.90;;;;;;;11.84;81.82;101874.50;5050770;28;20044;-72
2022/07/27 03:57:13;;;;;;;11.32;3.20;;;;;;;11.89;82.07;101882.34;5050703;28;20535;-72
2022/07/27 03:59:41;;;;;;;9.27;3.28;;;;;;;11.92;82.35;101880.53;5050977;28;20045;-72
2022/07/27 04:02:08;;;;;;;8.30;3.20;;;;;;;11.96;82.49;101884.84;5050384;28;20100;-72
2022/07/27 04:04:35;;;;;;;11.63;3.40;;;;;;;12.01;82.45;101884.78;5051048;28;20091;-72
2022/07/27 04:07:06;;;;;;;8.50;3.08;;;;;;;12.07;82.36;101884.66;5051144;28;20045;-72
2022/07/27 04:09:34;;;;;;;8.18;3.70;;;;;;;12.08;82.13;101889.06;5051996;28;20038;-72
2022/07/27 04:12:03;;;;;;;6.68;3.13;;;;;;;12.13;82.09;101888.97;5050828;28;20147;-72
2022/07/27 04:14:30;;;;;;;16.75;3.90;;;;;;;12.15;81.66;101892.44;5051751;28;20050;-71
2022/07/27 04:16:58;;;;;;;12.02;3.28;;;;;;;12.19;82.08;101891.50;5050764;28;20065;-71
2022/07/27 04:19:25;;;;;;;10.18;3.30;;;;;;;12.21;81.99;101887.03;5048523;28;20042;-71
2022/07/27 04:21:52;;;;;;;10.80;3.20;;;;;;;12.25;81.97;101879.94;5051120;28;20052;-71
2022/07/27 04:24:22;;;;;;;12.13;3.33;;;;;;;12.32;81.92;101889.47;5050899;28;20056;-71
2022/07/27 04:26:49;;;;;;;8.70;2.95;;;;;;;12.35;81.87;101886.75;5043550;28;20584;-71
2022/07/27 04:29:17;;;;;;;21.30;2.95;;;;;;;12.38;81.98;101891.97;5066168;28;20044;-71
2022/07/27 04:31:47;;;;;;;14.52;3.70;;;;;;;12.45;81.85;101891.84;5064764;28;20041;-71
2022/07/27 04:34:15;;;;;;;10.30;2.88;;;;;;;12.51;82.10;101886.41;5051258;28;20049;-72
2022/07/27 04:36:42;;;;;;;9.57;2.50;;;;;;;12.57;81.93;101887.16;5050077;28;20176;-72
2022/07/27 04:39:09;;;;;;;8.65;2.85;;;;;;;12.63;81.98;101888.81;5050272;28;20044;-72
2022/07/27 04:41:37;;;;;;;7.95;3.00;;;;;;;12.69;81.82;101887.81;5056961;28;20045;-75
2022/07/27 04:44:04;;;;;;;6.43;3.15;;;;;;;12.73;81.55;101890.34;5050166;28;20050;-71
2022/07/27 04:46:31;;;;;;;7.13;2.83;;;;;;;12.81;81.51;101890.16;5050585;28;20751;-71
2022/07/27 04:48:58;;;;;;;5.95;2.33;;;;;;;12.88;81.31;101891.75;5050929;28;20033;-71
2022/07/27 04:51:25;;;;;;;7.53;2.80;;;;;;;12.99;81.54;101902.09;5050702;28;20048;-71
2022/07/27 04:54:01;;;;;;;6.78;2.80;;;;;;;13.11;81.24;101898.28;5080998;28;20045;-72
2022/07/27 04:56:28;;;;;;;11.95;3.55;;;;;;;13.28;81.03;101900.50;5040157;28;20047;-71
2022/07/27 04:58:55;;;;;;;10.05;2.45;;;;;;;13.40;80.24;101894.09;5049638;28;20425;-71
2022/07/27 05:01:24;;;;;;;9.43;2.75;;;;;;;13.51;79.18;101894.69;5049971;28;20409;-71
2022/07/27 05:03:51;;;;;;;9.57;2.22;;;;;;;13.61;78.81;101899.75;5050994;28;20784;-71
2022/07/27 05:06:18;;;;;;;5.20;2.05;;;;;;;13.73;78.22;101904.72;5050633;28;20135;-72
2022/07/27 05:08:46;;;;;;;6.55;2.13;;;;;;;13.84;77.59;101900.91;5050918;28;20096;-72
2022/07/27 05:11:13;;;;;;;5.30;2.00;;;;;;;13.93;77.04;101905.97;5052589;28;20133;-71
2022/07/27 05:13:40;;;;;;;9.55;2.58;;;;;;;14.01;77.17;101903.06;5052670;28;20037;-72
2022/07/27 05:16:09;;;;;;;8.60;2.35;;;;;;;14.08;76.51;101904.66;5058425;28;20135;-72
2022/07/27 05:18:38;;;;;;;6.43;2.38;;;;;;;14.13;76.36;101908.94;5050489;28;20512;-72
2022/07/27 05:21:07;;;;;;;7.85;2.40;;;;;;;14.18;75.79;101908.78;5051541;28;20108;-71
2022/07/27 05:23:34;;;;;;;6.75;2.10;;;;;;;14.21;76.05;101916.63;5053354;28;20049;-72
2022/07/27 05:26:02;;;;;;;11.48;2.38;;;;;;;14.37;75.98;101918.88;5054033;28;20068;-72
2022/07/27 05:28:30;;;;;;;6.63;2.10;;;;;;;14.67;74.94;101910.94;5053618;28;20103;-71
2022/07/27 05:31:00;;;;;;;7.53;2.30;;;;;;;14.74;74.21;101909.81;5052317;28;20053;-72
2022/07/27 05:33:31;;;;;;;6.70;2.22;;;;;;;14.83;74.54;101914.00;5066692;28;20037;-73
2022/07/27 05:35:58;;;;;;;15.50;2.67;;;;;;;15.16;74.14;101917.34;5051108;28;20034;-72
2022/07/27 05:38:26;;;;;;;7.18;1.98;;;;;;;17.23;69.89;101911.63;5053187;28;20038;-73
2022/07/27 05:40:53;;;;;;;8.13;2.30;;;;;;;19.97;61.87;101905.16;5053449;28;20049;-73
2022/07/27 05:43:20;;;;;;;8.82;2.50;;;;;;;22.17;55.97;101911.31;5053495;28;20044;-74
2022/07/27 05:45:48;;;;;;;6.45;1.67;;;;;;;23.92;50.51;101905.22;5052902;28;20051;-73
2022/07/27 05:48:15;;;;;;;6.45;1.50;;;;;;;25.33;46.60;101911.22;5052737;28;20033;-73
2022/07/27 05:50:42;;;;;;;2.92;1.30;;;;;;;26.49;43.02;101914.84;5051787;28;20046;-73
2022/07/27 05:53:09;;;;;;;15.68;2.20;;;;;;;27.34;40.38;101906.94;5053785;28;20121;-73
2022/07/27 05:55:36;;;;;;;4.18;0.80;;;;;;;28.14;37.94;101910.03;5054083;28;20112;-73
2022/07/27 05:58:05;;;;;;;2.78;0.77;;;;;;;28.77;37.49;101907.09;5053483;28;20535;-73
2022/07/27 06:00:32;;;;;;;3.38;1.00;;;;;;;29.25;35.08;101912.69;5054203;28;20468;-73
2022/07/27 06:02:59;;;;;;;10.05;1.50;;;;;;;29.61;34.57;101909.38;5052673;28;20076;-73
2022/07/27 06:05:27;;;;;;;5.75;0.95;;;;;;;29.86;33.70;101907.88;5050602;28;20042;-72
2022/07/27 06:08:07;;;;;;;9.23;1.50;;;;;;;30.02;32.58;101908.13;5053217;28;20340;-70
2022/07/27 06:10:39;;;;;;;4.07;1.00;;;;;;;29.62;33.23;101917.38;5053016;28;20129;-70
2022/07/27 06:13:10;;;;;;;4.63;1.00;;;;;;;27.70;34.86;101915.63;5053344;28;20072;-70
2022/07/27 06:15:39;;;;;;;8.00;1.50;;;;;;;24.83;39.51;101923.97;5053772;28;20121;-69
2022/07/27 06:18:16;;;;;;;5.43;1.00;;;;;;;22.74;44.08;101928.38;5043867;28;20041;-73
2022/07/27 06:20:44;;;;;;;3.47;0.82;;;;;;;21.08;46.60;101939.22;5050637;28;20060;-72
2022/07/27 06:23:14;;;;;;;16.90;1.55;;;;;;;20.05;49.53;101937.72;5051959;28;20124;-72
2022/07/27 06:25:41;;;;;;;2.08;0.80;;;;;;;19.37;52.03;101943.84;5053249;28;20049;-72
2022/07/27 06:28:08;;;;;;;6.30;0.93;;;;;;;18.68;53.38;101943.53;5052577;28;20041;-72
2022/07/27 06:30:35;;;;;;;7.72;1.00;;;;;;;18.22;55.29;101941.19;5052050;28;20045;-73
2022/07/27 06:33:03;;;;;;;2.65;0.90;;;;;;;17.75;56.42;101955.66;5052833;28;20048;-74
2022/07/27 06:35:32;;;;;;;3.65;0.90;;;;;;;17.33;57.62;101953.88;5042259;28;21024;-74
2022/07/27 06:38:00;;;;;;;4.43;1.13;;;;;;;17.03;59.16;101956.84;5051650;28;20100;-72
2022/07/27 06:40:28;;;;;;;3.60;0.90;;;;;;;16.90;60.52;101957.28;5054827;28;20150;-73
2022/07/27 06:42:57;;;;;;;2.58;1.30;;;;;;;16.79;61.08;101961.31;5052825;28;20041;-73
2022/07/27 06:45:26;;;;;;;4.13;1.10;;;;;;;16.73;61.79;101949.09;5049252;28;20159;-75
2022/07/27 06:47:53;;;;;;;5.93;1.50;;;;;;;16.85;61.70;101958.41;5049025;28;20133;-71
2022/07/27 06:50:21;;;;;;;3.72;1.00;;;;;;;16.92;62.00;101957.25;5047739;28;20038;-71
2022/07/27 06:52:48;;;;;;;4.45;1.10;;;;;;;17.06;62.04;101960.25;5039946;28;20053;-71
2022/07/27 06:55:16;;;;;;;5.40;1.00;;;;;;;17.21;61.96;101972.09;5049321;28;20042;-71
2022/07/27 06:57:45;;;;;;;3.28;1.00;;;;;;;17.31;60.10;101969.94;5054468;28;20047;-71
2022/07/27 07:00:13;;;;;;;3.47;0.90;;;;;;;17.26;60.40;101973.72;5049262;28;20052;-71
2022/07/27 07:02:59;;;;;;;5.47;1.15;;;;;;;17.33;60.37;101967.19;5048266;28;20049;-71
2022/07/27 07:05:29;;;;;;;5.35;0.77;;;;;;;17.30;60.16;101964.66;5056456;28;20049;-71
2022/07/27 07:07:57;;;;;;;5.07;1.05;;;;;;;17.39;60.68;101970.47;5063533;28;20045;-72
2022/07/27 07:10:26;;;;;;;4.68;0.80;;;;;;;17.42;59.73;101973.94;5047474;28;20369;-73
2022/07/27 07:12:54;;;;;;;4.78;0.90;;;;;;;17.38;59.85;101979.41;5045223;28;20578;-72
2022/07/27 07:15:25;;;;;;;3.47;0.70;;;;;;;17.39;59.73;101973.16;5057701;28;20045;-74
2022/07/27 07:17:53;;;;;;;3.08;1.00;;;;;;;17.46;59.97;101970.22;5050816;28;20504;-73
2022/07/27 07:20:21;;;;;;;3.50;0.70;;;;;;;17.51;60.21;101977.09;5047048;28;20143;-71
2022/07/27 07:22:48;;;;;;;3.13;1.10;;;;;;;17.58;60.05;101976.84;5043570;28;20941;-71
2022/07/27 07:25:16;;;;;;;3.22;1.10;;;;;;;17.62;59.42;101979.31;5050927;28;20104;-72
2022/07/27 07:27:44;;;;;;;2.90;0.77;;;;;;;17.67;59.34;101971.97;5060126;28;20124;-71
2022/07/27 07:30:12;;;;;;;4.93;0.90;;;;;;;17.68;59.51;101978.19;5059677;28;20400;-71
2022/07/27 07:32:39;;;;;;;3.88;1.00;;;;;;;17.72;59.14;101970.94;5050692;28;20048;-73
2022/07/27 07:35:07;;;;;;;2.88;0.90;;;;;;;17.77;60.13;101974.25;5054540;28;20120;-72
2022/07/27 07:37:35;;;;;;;3.75;0.80;;;;;;;18.03;59.48;101975.81;5039288;28;20038;-73
2022/07/27 07:40:04;;;;;;;5.25;0.82;;;;;;;18.25;57.28;101970.44;5037562;28;20041;-73
2022/07/27 07:43:02;;;;;;;2.92;0.80;;;;;;;18.26;56.53;101969.47;5055758;28;20041;-74
2022/07/27 07:45:34;;;;;;;3.78;0.68;;;;;;;18.27;57.24;101973.88;5037753;28;20100;-72
2022/07/27 07:48:01;;;;;;;2.28;0.50;;;;;;;18.36;54.54;101977.94;5063315;28;20037;-72
2022/07/27 07:50:28;;;;;;;5.72;0.73;;;;;;;18.38;53.57;101981.41;5058506;28;20131;-72
2022/07/27 07:52:55;;;;;;;3.42;0.60;;;;;;;18.33;53.35;101980.72;5045153;28;20065;-73
2022/07/27 07:55:26;;;;;;;2.15;0.52;;;;;;;18.23;53.22;101980.31;5049307;28;20112;-72
2022/07/27 07:57:56;;;;;;;2.67;0.63;;;;;;;18.18;53.72;101981.44;5048739;28;20100;-75
2022/07/27 08:00:23;;;;;;;3.90;0.68;;;;;;;18.26;53.94;101984.63;5047194;28;20034;-71
2022/07/27 08:02:58;;;;;;;1.30;0.50;;;;;;;18.43;52.47;101984.72;5045335;28;20065;-71
2022/07/27 08:05:26;;;;;;;3.67;0.80;;;;;;;18.53;52.68;101984.31;5048368;28;20116;-71
2022/07/27 08:07:54;;;;;;;3.60;0.80;;;;;;;18.64;52.74;101992.69;5046439;28;20401;-70
2022/07/27 08:10:23;;;;;;;13.70;1.25;;;;;;;18.75;52.86;101995.72;5045199;28;20484;-71
2022/07/27 08:12:54;;;;;;;3.28;0.60;;;;;;;18.87;51.92;101996.94;5045004;28;20092;-71
2022/07/27 08:15:23;;;;;;;14.27;1.75;;;;;;;18.94;52.28;101989.53;5047219;28;20467;-71
2022/07/27 08:18:05;;;;;;;7.68;0.90;;;;;;;19.07;52.08;101996.06;5047911;28;20483;-70
2022/07/27 08:20:33;;;;;;;6.32;0.60;;;;;;;19.24;51.83;102000.59;5047197;28;20053;-70
2022/07/27 08:23:03;;;;;;;2.65;0.50;;;;;;;19.47;47.93;101995.91;5042247;28;20128;-71
2022/07/27 08:25:31;;;;;;;2.97;0.60;;;;;;;19.41;48.82;102004.22;5055110;28;20937;-71
2022/07/27 08:27:59;;;;;;;3.38;0.70;;;;;;;19.38;49.47;101993.72;5067161;28;20132;-70
2022/07/27 08:30:29;;;;;;;6.47;0.90;;;;;;;19.40;49.47;101999.81;5049689;28;20076;-71
2022/07/27 08:33:03;;;;;;;1.90;0.75;;;;;;;19.65;50.49;101999.47;5055948;28;20042;-71
2022/07/27 08:35:33;;;;;;;2.30;0.75;;;;;;;19.92;47.80;101999.03;5052209;28;20149;-71
2022/07/27 08:38:04;;;;;;;8.50;1.10;;;;;;;19.98;47.92;101997.88;5047787;28;20041;-71
2022/07/27 08:40:32;;;;;;;5.82;0.70;;;;;;;20.01;47.66;101995.00;5049486;28;20060;-71
2022/07/27 08:43:10;;;;;;;4.03;0.90;;;;;;;20.09;45.74;101994.63;5047822;28;20038;-72
2022/07/27 08:45:38;;;;;;;4.75;0.80;;;;;;;20.02;45.92;101997.63;5058409;28;20045;-71
2022/07/27 08:48:05;;;;;;;2.60;0.80;;;;;;;20.04;44.88;101994.00;5070795;28;20091;-71
2022/07/27 08:50:33;;;;;;;1.98;0.65;;;;;;;19.95;43.55;101998.88;5069703;28;20064;-71
2022/07/27 08:53:05;;;;;;;2.60;0.70;;;;;;;19.85;44.10;101994.91;5053185;28;20049;-71
2022/07/27 08:55:38;;;;;;;2.63;0.50;;;;;;;19.86;43.67;101985.97;5055555;28;20467;-72
2022/07/27 08:58:07;;;;;;;4.22;0.60;;;;;;;19.86;44.25;101992.19;5051391;28;20555;-71
2022/07/27 09:00:38;;;;;;;3.35;0.80;;;;;;;19.86;43.80;101986.84;5057329;28;20087;-72
2022/07/27 09:03:06;;;;;;;3.30;0.70;;;;;;;19.85;44.26;101985.13;5058809;28;20119;-73
2022/07/27 09:05:42;;;;;;;2.67;0.43;;;;;;;19.89;44.16;101990.31;5054745;28;20041;-72
2022/07/27 09:08:14;;;;;;;2.78;0.50;;;;;;;19.90;45.18;101997.38;5065866;28;20103;-70
2022/07/27 09:10:42;;;;;;;2.63;0.70;;;;;;;20.09;45.42;101995.50;5052407;28;20048;-71
2022/07/27 09:13:28;;;;;;;4.50;0.80;;;;;;;20.33;45.19;101985.28;5056502;28;20071;-71
2022/07/27 09:16:04;;;;;;;21.27;1.55;;;;;;;20.55;44.64;101983.25;5054018;28;21024;-71
2022/07/27 09:19:07;;;;;;;3.15;0.70;;;;;;;20.62;44.11;101985.53;5049389;28;20041;-71
2022/07/27 09:21:36;;;;;;;2.05;0.80;;;;;;;20.72;42.30;101979.66;5065963;28;20092;-73
2022/07/27 09:24:15;;;;;;;6.30;1.20;;;;;;;20.52;44.04;101983.41;5067039;28;20033;-71
2022/07/27 09:27:05;;;;;;;4.97;0.70;;;;;;;20.51;44.67;101977.22;5061790;28;20134;-74
2022/07/27 09:29:34;;;;;;;2.28;0.70;;;;;;;20.59;44.82;101980.31;5070031;28;21083;-71
2022/07/27 09:32:14;;;;;;;1.77;0.60;;;;;;;20.73;43.00;101981.38;5066198;28;20037;-72
2022/07/27 09:34:44;;;;;;;7.20;0.90;;;;;;;20.54;44.42;101978.84;5052466;28;20138;-72
2022/07/27 09:37:26;;;;;;;2.38;0.65;;;;;;;20.71;44.74;101980.59;5056144;28;20136;-70
2022/07/27 09:40:13;;;;;;;4.72;0.77;;;;;;;20.94;44.53;101985.59;5053669;28;20140;-70
2022/07/27 09:42:41;;;;;;;3.40;0.82;;;;;;;21.03;43.55;101977.97;5050340;28;20135;-70
2022/07/27 09:45:34;;;;;;;3.72;0.60;;;;;;;21.24;42.50;101986.59;5050859;28;20536;-71
2022/07/27 09:48:09;;;;;;;5.22;1.00;;;;;;;21.19;42.66;101986.00;5050393;28;20554;-71
2022/07/27 09:50:40;;;;;;;7.38;1.30;;;;;;;21.09;43.40;101985.66;5052461;28;20088;-71
2022/07/27 09:53:33;;;;;;;4.30;0.90;;;;;;;20.99;43.12;101984.44;5052222;28;20116;-71
2022/07/27 09:56:14;;;;;;;1.20;0.52;;;;;;;20.91;41.84;101988.44;5051448;28;20038;-71
2022/07/27 09:58:48;;;;;;;9.32;1.35;;;;;;;20.60;43.55;101983.88;5047801;28;20120;-71
2022/07/27 10:01:23;;;;;;;;;;;;;;;20.45;43.64;101983.75;5048611;28;20045;-71
2022/07/27 10:03:56;;;;;;;3.17;0.70;;;;;;;20.44;44.34;101978.50;5050128;28;19929;-71
2022/07/27 10:06:25;;;;;;;2.28;0.60;;;;;;;20.41;44.05;101992.03;5052824;28;20043;-70
2022/07/27 10:08:56;;;;;;;11.27;1.20;;;;;;;20.35;44.63;101981.69;5066709;28;20148;-71
2022/07/27 10:11:24;;;;;;;4.95;0.80;;;;;;;20.40;44.07;101987.63;5049826;28;20045;-71
2022/07/27 10:13:55;;;;;;;5.82;0.88;;;;;;;20.66;44.18;101985.34;5059993;28;20049;-71
2022/07/27 10:16:30;;;;;;;1.95;0.63;;;;;;;21.04;42.52;101983.22;5062182;28;20049;-71
2022/07/27 10:19:27;;;;;;;5.45;0.95;;;;;;;21.42;42.79;101980.16;5051387;28;20427;-71
2022/07/27 10:21:54;;;;;;;5.25;0.98;;;;;;;21.78;41.73;101980.78;5064101;28;20063;-70
2022/07/27 10:24:33;;;;;;;5.25;1.15;;;;;;;21.78;40.93;101983.47;5064488;28;20045;-71
2022/07/27 10:27:28;;;;;;;4.68;0.90;;;;;;;21.70;40.22;101983.06;5052288;28;20045;-70
2022/07/27 10:29:57;;;;;;;6.72;0.70;;;;;;;21.47;40.66;101974.53;5055517;28;20065;-72
2022/07/27 10:32:30;;;;;;;5.85;0.93;;;;;;;21.18;41.71;101971.72;5049501;28;20046;-73
2022/07/27 10:35:00;;;;;;;5.25;0.85;;;;;;;20.94;42.22;101969.50;5041418;28;20105;-72
2022/07/27 10:37:31;;;;;;;9.45;0.95;;;;;;;20.71;43.31;101965.38;5049308;28;20981;-73
2022/07/27 10:43:18;;;;;;;4.35;0.70;;;;;;;20.19;43.95;101957.53;5048297;28;20073;-72
2022/07/27 10:45:49;;;;;;;4.13;0.77;;;;;;;20.31;44.29;101964.88;5045645;28;20500;-71
2022/07/27 10:48:41;;;;;;;5.15;1.27;;;;;;;20.57;43.27;101962.63;5046953;28;20622;-72
2022/07/27 10:51:15;;;;;;;8.70;0.60;;;;;;;20.82;43.28;101956.78;5036192;28;20338;-71
2022/07/27 10:53:44;;;;;;;9.10;1.20;;;;;;;21.17;43.54;101961.94;5048604;28;20117;-72
2022/07/27 10:56:47;;;;;;;5.05;0.70;;;;;;;21.61;41.56;101962.16;5051690;28;20038;-72
2022/07/27 10:59:42;;;;;;;7.50;1.00;;;;;;;21.94;40.65;101956.56;5049580;28;20500;-71
2022/07/27 11:02:40;;;;;;;5.67;0.83;;;;;;;22.33;40.05;101952.38;5038188;28;20551;-71
2022/07/27 11:05:10;;;;;;;5.00;1.42;;;;;;;22.66;40.30;101953.06;5059091;28;20068;-73
2022/07/27 11:07:59;;;;;;;7.22;1.00;;;;;;;22.80;41.13;101944.94;5051541;28;20831;-72
2022/07/27 11:10:50;;;;;;;7.70;1.00;;;;;;;22.99;39.37;101941.09;5041020;28;20038;-72
2022/07/27 11:13:21;;;;;;;15.43;2.22;;;;;;;22.95;39.56;101942.25;5043354;28;20049;-73
2022/07/27 11:15:55;;;;;;;5.50;0.80;;;;;;;22.78;39.60;101940.66;5048076;28;20108;-73
2022/07/27 11:18:53;;;;;;;4.45;1.00;;;;;;;22.58;38.70;101944.63;5050740;28;20284;-74
2022/07/27 11:21:27;;;;;;;7.63;0.77;;;;;;;22.37;38.17;101944.13;5057235;28;20092;-74
2022/07/27 11:24:18;;;;;;;7.57;0.80;;;;;;;22.08;38.25;101934.22;5045292;28;20529;-72
2022/07/27 11:26:49;;;;;;;4.80;0.73;;;;;;;21.97;38.71;101944.81;5047394;28;20041;-73
2022/07/27 11:29:20;;;;;;;3.55;0.55;;;;;;;22.06;39.00;101941.53;5058648;28;20052;-73
2022/07/27 11:31:54;;;;;;;6.72;1.10;;;;;;;22.07;39.18;101931.66;5050333;28;20898;-73
2022/07/27 11:34:35;;;;;;;7.25;1.00;;;;;;;22.08;39.56;101933.38;5052682;28;20503;-71
2022/07/27 11:37:13;;;;;;;12.68;0.80;;;;;;;22.31;38.48;101932.81;5033860;28;20594;-72
2022/07/27 11:39:40;;;;;;;7.10;0.88;;;;;;;22.57;38.75;101935.69;5051886;28;20100;-71
2022/07/27 11:42:38;;;;;;;4.25;2.13;;;;;;;22.95;38.13;101928.78;5050110;28;20033;-71
2022/07/27 11:45:06;;;;;;;3.90;0.75;;;;;;;23.31;36.39;101926.47;5031592;28;20108;-71
2022/07/27 11:47:35;;;;;;;3.85;0.73;;;;;;;23.55;36.26;101918.56;5031605;28;20504;-71
2022/07/27 11:50:07;;;;;;;3.35;0.73;;;;;;;23.88;36.59;101930.66;5050200;28;20048;-72